Honeoye Falls, New York
Current Conditions -  °F | °C
As of 11:54 PM on Wednesday 17 Dec 2014 (Local Time) from KROC Reporting Station
Light Snow Light Snow  
Wind Chill: 22°   Ceiling: 1600
Heat Index: 32°   Visibility: 6mi
Dew Point: 27°   Wind: 15mph
Humidity: 82%   Direction: 270°W
Pressure: 29.96"   Gusts: NA
Location:  42.95°N, 77.59°W
Report Text: KROC 180454Z 27013KT 6SM -SN BKN016 OVC022 00/M03 A2996 RMK AO2 PK WND 28026/0433 SLP152 P0000 T00001028 400670000
Loading
Personal Weather Stations






























Interactive Weather Map New forecast layout! Learn more

10-Day Weather Forecast

Advertisements
Track Severe Weather on mobile